sensor_id;sensor_type;location;lat;lon;timestamp;temperature;humidity
8231;DHT22;4156;50.908;6.974;2023-08-20T00:01:06;24.80;99.90
8231;DHT22;4156;50.908;6.974;2023-08-20T00:03:33;24.80;99.90
8231;DHT22;4156;50.908;6.974;2023-08-20T00:05:59;24.90;99.90
8231;DHT22;4156;50.908;6.974;2023-08-20T00:08:25;24.80;99.90
8231;DHT22;4156;50.908;6.974;2023-08-20T00:10:50;24.70;99.90
8231;DHT22;4156;50.908;6.974;2023-08-20T00:13:16;24.80;99.90
8231;DHT22;4156;50.908;6.974;2023-08-20T00:15:42;24.70;99.90
8231;DHT22;4156;50.908;6.974;2023-08-20T00:18:07;24.80;99.90
8231;DHT22;4156;50.908;6.974;2023-08-20T00:20:33;24.70;99.90
8231;DHT22;4156;50.908;6.974;2023-08-20T00:22:59;24.60;99.90
8231;DHT22;4156;50.908;6.974;2023-08-20T00:25:25;24.50;99.90
8231;DHT22;4156;50.908;6.974;2023-08-20T00:27:51;24.60;99.90
8231;DHT22;4156;50.908;6.974;2023-08-20T00:30:16;24.50;99.90
8231;DHT22;4156;50.908;6.974;2023-08-20T00:32:42;24.50;99.90
8231;DHT22;4156;50.908;6.974;2023-08-20T00:35:07;24.50;99.90
8231;DHT22;4156;50.908;6.974;2023-08-20T00:37:33;24.40;99.90
8231;DHT22;4156;50.908;6.974;2023-08-20T00:39:59;24.50;99.90
8231;DHT22;4156;50.908;6.974;2023-08-20T00:42:25;24.50;99.90
8231;DHT22;4156;50.908;6.974;2023-08-20T00:44:51;24.40;99.90
8231;DHT22;4156;50.908;6.974;2023-08-20T00:47:18;24.40;99.90
8231;DHT22;4156;50.908;6.974;2023-08-20T00:49:43;24.40;99.90
8231;DHT22;4156;50.908;6.974;2023-08-20T00:52:11;24.30;99.90
8231;DHT22;4156;50.908;6.974;2023-08-20T00:54:39;24.30;99.90
8231;DHT22;4156;50.908;6.974;2023-08-20T00:57:06;24.30;99.90
8231;DHT22;4156;50.908;6.974;2023-08-20T00:59:34;24.20;99.90
8231;DHT22;4156;50.908;6.974;2023-08-20T01:02:00;24.20;99.90
8231;DHT22;4156;50.908;6.974;2023-08-20T01:04:27;24.20;99.90
8231;DHT22;4156;50.908;6.974;2023-08-20T01:10:04;24.20;99.90
8231;DHT22;4156;50.908;6.974;2023-08-20T01:12:34;24.10;99.90
8231;DHT22;4156;50.908;6.974;2023-08-20T01:15:01;24.10;99.90
8231;DHT22;4156;50.908;6.974;2023-08-20T01:17:26;24.20;99.90
8231;DHT22;4156;50.908;6.974;2023-08-20T01:19:52;24.10;99.90
8231;DHT22;4156;50.908;6.974;2023-08-20T01:25:24;24.10;99.90
8231;DHT22;4156;50.908;6.974;2023-08-20T01:30:39;24.10;99.90
8231;DHT22;4156;50.908;6.974;2023-08-20T01:33:05;24.00;99.90
8231;DHT22;4156;50.908;6.974;2023-08-20T01:35:32;23.90;99.90
8231;DHT22;4156;50.908;6.974;2023-08-20T01:37:57;23.90;99.90
8231;DHT22;4156;50.908;6.974;2023-08-20T01:40:23;23.90;99.90
8231;DHT22;4156;50.908;6.974;2023-08-20T01:42:48;23.90;99.90
8231;DHT22;4156;50.908;6.974;2023-08-20T01:45:14;23.90;99.90
8231;DHT22;4156;50.908;6.974;2023-08-20T01:47:39;23.80;99.90
8231;DHT22;4156;50.908;6.974;2023-08-20T01:50:05;23.80;99.90
8231;DHT22;4156;50.908;6.974;2023-08-20T01:52:31;23.80;99.90
8231;DHT22;4156;50.908;6.974;2023-08-20T01:54:57;23.80;99.90
8231;DHT22;4156;50.908;6.974;2023-08-20T01:57:23;23.90;99.90
8231;DHT22;4156;50.908;6.974;2023-08-20T01:59:48;23.80;99.90
8231;DHT22;4156;50.908;6.974;2023-08-20T02:02:14;23.80;99.90
8231;DHT22;4156;50.908;6.974;2023-08-20T02:04:39;23.80;99.90
8231;DHT22;4156;50.908;6.974;2023-08-20T02:07:05;23.80;99.90
8231;DHT22;4156;50.908;6.974;2023-08-20T02:09:31;23.80;99.90
8231;DHT22;4156;50.908;6.974;2023-08-20T02:11:56;23.80;99.90
8231;DHT22;4156;50.908;6.974;2023-08-20T02:14:22;23.80;99.90
8231;DHT22;4156;50.908;6.974;2023-08-20T02:16:47;23.90;99.90
8231;DHT22;4156;50.908;6.974;2023-08-20T02:19:13;23.80;99.90
8231;DHT22;4156;50.908;6.974;2023-08-20T02:21:40;23.80;99.90
8231;DHT22;4156;50.908;6.974;2023-08-20T02:24:06;23.80;99.90
8231;DHT22;4156;50.908;6.974;2023-08-20T02:26:31;23.80;99.90
8231;DHT22;4156;50.908;6.974;2023-08-20T02:28:57;23.80;99.90
8231;DHT22;4156;50.908;6.974;2023-08-20T02:31:22;23.80;99.90
8231;DHT22;4156;50.908;6.974;2023-08-20T02:33:48;23.80;99.90
8231;DHT22;4156;50.908;6.974;2023-08-20T02:36:14;23.80;99.90
8231;DHT22;4156;50.908;6.974;2023-08-20T02:38:39;23.80;99.90
8231;DHT22;4156;50.908;6.974;2023-08-20T02:41:05;23.70;99.90
8231;DHT22;4156;50.908;6.974;2023-08-20T02:43:30;23.70;99.90
8231;DHT22;4156;50.908;6.974;2023-08-20T02:45:56;23.70;99.90
8231;DHT22;4156;50.908;6.974;2023-08-20T02:48:22;23.70;99.90
8231;DHT22;4156;50.908;6.974;2023-08-20T02:50:55;23.70;99.90
8231;DHT22;4156;50.908;6.974;2023-08-20T02:53:22;23.60;99.90
8231;DHT22;4156;50.908;6.974;2023-08-20T02:55:48;23.60;99.90
8231;DHT22;4156;50.908;6.974;2023-08-20T02:58:13;23.70;99.90
8231;DHT22;4156;50.908;6.974;2023-08-20T03:00:39;23.70;99.90
8231;DHT22;4156;50.908;6.974;2023-08-20T03:03:05;23.60;99.90
8231;DHT22;4156;50.908;6.974;2023-08-20T03:05:34;23.70;99.90
8231;DHT22;4156;50.908;6.974;2023-08-20T03:08:00;23.70;99.90
8231;DHT22;4156;50.908;6.974;2023-08-20T03:10:27;23.60;99.90
8231;DHT22;4156;50.908;6.974;2023-08-20T03:12:52;23.70;99.90
8231;DHT22;4156;50.908;6.974;2023-08-20T03:15:18;23.70;99.90
8231;DHT22;4156;50.908;6.974;2023-08-20T03:17:43;23.60;99.90
8231;DHT22;4156;50.908;6.974;2023-08-20T03:20:09;23.60;99.90
8231;DHT22;4156;50.908;6.974;2023-08-20T03:22:36;23.50;99.90
8231;DHT22;4156;50.908;6.974;2023-08-20T03:25:02;23.50;99.90
8231;DHT22;4156;50.908;6.974;2023-08-20T03:27:28;23.50;99.90
8231;DHT22;4156;50.908;6.974;2023-08-20T03:29:54;23.50;99.90
8231;DHT22;4156;50.908;6.974;2023-08-20T03:32:19;23.40;99.90
8231;DHT22;4156;50.908;6.974;2023-08-20T03:34:45;23.40;99.90
8231;DHT22;4156;50.908;6.974;2023-08-20T03:37:10;23.40;99.90
8231;DHT22;4156;50.908;6.974;2023-08-20T03:39:36;23.50;99.90
8231;DHT22;4156;50.908;6.974;2023-08-20T03:42:01;23.50;99.90
8231;DHT22;4156;50.908;6.974;2023-08-20T03:44:27;23.40;99.90
8231;DHT22;4156;50.908;6.974;2023-08-20T03:46:54;23.40;99.90
8231;DHT22;4156;50.908;6.974;2023-08-20T03:49:20;23.50;99.90
8231;DHT22;4156;50.908;6.974;2023-08-20T03:51:45;23.40;99.90
8231;DHT22;4156;50.908;6.974;2023-08-20T03:54:11;23.40;99.90
8231;DHT22;4156;50.908;6.974;2023-08-20T03:56:36;23.40;99.90
8231;DHT22;4156;50.908;6.974;2023-08-20T03:59:02;23.40;99.90
8231;DHT22;4156;50.908;6.974;2023-08-20T04:01:27;23.40;99.90
8231;DHT22;4156;50.908;6.974;2023-08-20T04:03:53;23.40;99.90
8231;DHT22;4156;50.908;6.974;2023-08-20T04:06:19;23.40;99.90
8231;DHT22;4156;50.908;6.974;2023-08-20T04:08:44;23.40;99.90
8231;DHT22;4156;50.908;6.974;2023-08-20T04:11:10;23.40;99.90
8231;DHT22;4156;50.908;6.974;2023-08-20T04:13:35;23.30;99.90
8231;DHT22;4156;50.908;6.974;2023-08-20T04:16:01;23.30;99.90
8231;DHT22;4156;50.908;6.974;2023-08-20T04:18:26;23.30;99.90
8231;DHT22;4156;50.908;6.974;2023-08-20T04:20:52;23.30;99.90
8231;DHT22;4156;50.908;6.974;2023-08-20T04:23:19;23.40;99.90
8231;DHT22;4156;50.908;6.974;2023-08-20T04:25:44;23.30;99.90
8231;DHT22;4156;50.908;6.974;2023-08-20T04:28:11;23.30;99.90
8231;DHT22;4156;50.908;6.974;2023-08-20T04:30:37;23.30;99.90
8231;DHT22;4156;50.908;6.974;2023-08-20T04:33:03;23.30;99.90
8231;DHT22;4156;50.908;6.974;2023-08-20T04:35:29;23.30;99.90
8231;DHT22;4156;50.908;6.974;2023-08-20T04:37:54;23.30;99.90
8231;DHT22;4156;50.908;6.974;2023-08-20T04:40:20;23.20;99.90
8231;DHT22;4156;50.908;6.974;2023-08-20T04:42:45;23.20;99.90
8231;DHT22;4156;50.908;6.974;2023-08-20T04:45:11;23.20;99.90
8231;DHT22;4156;50.908;6.974;2023-08-20T04:47:38;23.20;99.90
8231;DHT22;4156;50.908;6.974;2023-08-20T04:50:04;23.20;99.90
8231;DHT22;4156;50.908;6.974;2023-08-20T04:52:32;23.20;99.90
8231;DHT22;4156;50.908;6.974;2023-08-20T04:54:57;23.20;99.90
8231;DHT22;4156;50.908;6.974;2023-08-20T04:57:23;23.20;99.90
8231;DHT22;4156;50.908;6.974;2023-08-20T04:59:49;23.20;99.90
8231;DHT22;4156;50.908;6.974;2023-08-20T05:02:14;23.20;99.90
8231;DHT22;4156;50.908;6.974;2023-08-20T05:04:40;23.20;99.90
8231;DHT22;4156;50.908;6.974;2023-08-20T05:07:05;23.20;99.90
8231;DHT22;4156;50.908;6.974;2023-08-20T05:09:32;23.20;99.90
8231;DHT22;4156;50.908;6.974;2023-08-20T05:11:58;23.10;99.90
8231;DHT22;4156;50.908;6.974;2023-08-20T05:14:23;23.10;99.90
8231;DHT22;4156;50.908;6.974;2023-08-20T05:16:49;23.10;99.90
8231;DHT22;4156;50.908;6.974;2023-08-20T05:19:14;23.10;99.90
8231;DHT22;4156;50.908;6.974;2023-08-20T05:21:40;23.10;99.90
8231;DHT22;4156;50.908;6.974;2023-08-20T05:24:06;23.10;99.90
8231;DHT22;4156;50.908;6.974;2023-08-20T05:26:31;23.10;99.90
8231;DHT22;4156;50.908;6.974;2023-08-20T05:28:57;23.10;99.90
8231;DHT22;4156;50.908;6.974;2023-08-20T05:31:22;23.10;99.90
8231;DHT22;4156;50.908;6.974;2023-08-20T05:33:48;23.10;99.90
8231;DHT22;4156;50.908;6.974;2023-08-20T05:36:14;23.20;99.90
8231;DHT22;4156;50.908;6.974;2023-08-20T05:38:39;23.20;99.90
8231;DHT22;4156;50.908;6.974;2023-08-20T05:41:07;23.20;99.90
8231;DHT22;4156;50.908;6.974;2023-08-20T05:43:33;23.20;99.90
8231;DHT22;4156;50.908;6.974;2023-08-20T05:45:58;23.20;99.90
8231;DHT22;4156;50.908;6.974;2023-08-20T05:48:24;23.20;99.90
8231;DHT22;4156;50.908;6.974;2023-08-20T05:50:49;23.30;99.90
8231;DHT22;4156;50.908;6.974;2023-08-20T05:53:15;23.40;99.90
8231;DHT22;4156;50.908;6.974;2023-08-20T05:55:41;23.50;99.90
8231;DHT22;4156;50.908;6.974;2023-08-20T05:58:06;23.60;99.90
8231;DHT22;4156;50.908;6.974;2023-08-20T06:00:32;23.70;99.90
8231;DHT22;4156;50.908;6.974;2023-08-20T06:02:57;23.70;99.90
8231;DHT22;4156;50.908;6.974;2023-08-20T06:05:23;23.80;99.90
8231;DHT22;4156;50.908;6.974;2023-08-20T06:07:48;23.90;99.90
8231;DHT22;4156;50.908;6.974;2023-08-20T06:10:15;24.00;99.90
8231;DHT22;4156;50.908;6.974;2023-08-20T06:12:40;24.00;99.90
8231;DHT22;4156;50.908;6.974;2023-08-20T06:15:06;24.00;99.90
8231;DHT22;4156;50.908;6.974;2023-08-20T06:17:32;24.10;99.90
8231;DHT22;4156;50.908;6.974;2023-08-20T06:19:57;24.10;99.90
8231;DHT22;4156;50.908;6.974;2023-08-20T06:22:23;24.10;99.90
8231;DHT22;4156;50.908;6.974;2023-08-20T06:24:48;24.20;99.90
8231;DHT22;4156;50.908;6.974;2023-08-20T06:27:14;24.20;99.90
8231;DHT22;4156;50.908;6.974;2023-08-20T06:29:39;24.20;99.90
8231;DHT22;4156;50.908;6.974;2023-08-20T06:32:05;24.20;99.90
8231;DHT22;4156;50.908;6.974;2023-08-20T06:34:30;24.30;99.90
8231;DHT22;4156;50.908;6.974;2023-08-20T06:36:56;24.30;99.90
8231;DHT22;4156;50.908;6.974;2023-08-20T06:39:22;24.30;99.90
8231;DHT22;4156;50.908;6.974;2023-08-20T06:41:47;24.40;99.90
8231;DHT22;4156;50.908;6.974;2023-08-20T06:44:13;24.40;99.90
8231;DHT22;4156;50.908;6.974;2023-08-20T06:46:38;24.40;99.90
8231;DHT22;4156;50.908;6.974;2023-08-20T06:49:04;24.40;99.90
8231;DHT22;4156;50.908;6.974;2023-08-20T06:51:29;24.50;99.90
8231;DHT22;4156;50.908;6.974;2023-08-20T06:53:55;24.50;99.90
8231;DHT22;4156;50.908;6.974;2023-08-20T06:56:22;24.50;99.90
8231;DHT22;4156;50.908;6.974;2023-08-20T06:58:47;24.50;99.90
8231;DHT22;4156;50.908;6.974;2023-08-20T07:01:13;24.50;99.90
8231;DHT22;4156;50.908;6.974;2023-08-20T07:03:43;24.60;99.90
8231;DHT22;4156;50.908;6.974;2023-08-20T07:06:09;24.70;99.90
8231;DHT22;4156;50.908;6.974;2023-08-20T07:08:36;24.80;99.90
8231;DHT22;4156;50.908;6.974;2023-08-20T07:11:04;24.80;99.90
8231;DHT22;4156;50.908;6.974;2023-08-20T07:13:29;24.80;99.90
8231;DHT22;4156;50.908;6.974;2023-08-20T07:15:55;24.90;99.90
8231;DHT22;4156;50.908;6.974;2023-08-20T07:18:20;24.90;99.90
8231;DHT22;4156;50.908;6.974;2023-08-20T07:20:46;24.90;99.90
8231;DHT22;4156;50.908;6.974;2023-08-20T07:23:11;24.90;99.90
8231;DHT22;4156;50.908;6.974;2023-08-20T07:25:37;25.00;99.90
8231;DHT22;4156;50.908;6.974;2023-08-20T07:28:05;25.00;99.90
8231;DHT22;4156;50.908;6.974;2023-08-20T07:30:31;25.10;99.90
8231;DHT22;4156;50.908;6.974;2023-08-20T07:32:56;25.10;99.90
8231;DHT22;4156;50.908;6.974;2023-08-20T07:35:22;25.10;99.90
8231;DHT22;4156;50.908;6.974;2023-08-20T07:37:48;25.10;99.90
8231;DHT22;4156;50.908;6.974;2023-08-20T07:40:13;25.20;99.90
8231;DHT22;4156;50.908;6.974;2023-08-20T07:42:42;25.20;99.90
8231;DHT22;4156;50.908;6.974;2023-08-20T07:45:09;25.20;99.90
8231;DHT22;4156;50.908;6.974;2023-08-20T07:47:38;25.20;99.90
8231;DHT22;4156;50.908;6.974;2023-08-20T07:50:05;25.20;99.90
8231;DHT22;4156;50.908;6.974;2023-08-20T07:52:31;25.30;99.90
8231;DHT22;4156;50.908;6.974;2023-08-20T07:54:57;25.30;99.90
8231;DHT22;4156;50.908;6.974;2023-08-20T07:57:23;25.30;99.90
8231;DHT22;4156;50.908;6.974;2023-08-20T07:59:49;25.30;99.90
8231;DHT22;4156;50.908;6.974;2023-08-20T08:02:15;25.40;99.90
8231;DHT22;4156;50.908;6.974;2023-08-20T08:04:41;25.40;99.90
8231;DHT22;4156;50.908;6.974;2023-08-20T08:07:07;25.40;99.90
8231;DHT22;4156;50.908;6.974;2023-08-20T08:09:32;25.40;99.90
8231;DHT22;4156;50.908;6.974;2023-08-20T08:11:59;25.50;99.90
8231;DHT22;4156;50.908;6.974;2023-08-20T08:14:25;25.50;99.90
8231;DHT22;4156;50.908;6.974;2023-08-20T08:16:51;25.50;99.90
8231;DHT22;4156;50.908;6.974;2023-08-20T08:19:17;25.60;99.90
8231;DHT22;4156;50.908;6.974;2023-08-20T08:21:44;25.70;99.90
8231;DHT22;4156;50.908;6.974;2023-08-20T08:24:10;25.70;99.90
8231;DHT22;4156;50.908;6.974;2023-08-20T08:26:36;25.70;99.90
8231;DHT22;4156;50.908;6.974;2023-08-20T08:29:02;25.80;99.90
8231;DHT22;4156;50.908;6.974;2023-08-20T08:31:28;25.80;99.90
8231;DHT22;4156;50.908;6.974;2023-08-20T08:33:53;25.80;99.90
8231;DHT22;4156;50.908;6.974;2023-08-20T08:36:19;25.80;99.90
8231;DHT22;4156;50.908;6.974;2023-08-20T08:38:45;25.90;99.90
8231;DHT22;4156;50.908;6.974;2023-08-20T08:41:12;25.90;99.90
8231;DHT22;4156;50.908;6.974;2023-08-20T08:43:39;25.90;99.90
8231;DHT22;4156;50.908;6.974;2023-08-20T08:46:08;25.90;99.90
8231;DHT22;4156;50.908;6.974;2023-08-20T08:48:38;26.00;99.90
8231;DHT22;4156;50.908;6.974;2023-08-20T08:51:05;26.00;99.90
8231;DHT22;4156;50.908;6.974;2023-08-20T08:53:30;26.00;99.90
8231;DHT22;4156;50.908;6.974;2023-08-20T08:55:57;26.00;99.90
8231;DHT22;4156;50.908;6.974;2023-08-20T08:58:23;26.00;99.90
8231;DHT22;4156;50.908;6.974;2023-08-20T09:00:49;26.00;99.90
8231;DHT22;4156;50.908;6.974;2023-08-20T09:03:14;26.00;99.90
8231;DHT22;4156;50.908;6.974;2023-08-20T09:08:22;26.00;99.90
8231;DHT22;4156;50.908;6.974;2023-08-20T09:10:52;26.10;99.90
8231;DHT22;4156;50.908;6.974;2023-08-20T09:13:23;26.10;99.90
8231;DHT22;4156;50.908;6.974;2023-08-20T09:15:52;26.10;99.90
8231;DHT22;4156;50.908;6.974;2023-08-20T09:18:17;26.20;99.90
8231;DHT22;4156;50.908;6.974;2023-08-20T09:20:43;26.30;99.90
8231;DHT22;4156;50.908;6.974;2023-08-20T09:23:12;26.30;99.90
8231;DHT22;4156;50.908;6.974;2023-08-20T09:25:44;26.30;99.90
8231;DHT22;4156;50.908;6.974;2023-08-20T09:28:10;26.40;99.90
8231;DHT22;4156;50.908;6.974;2023-08-20T09:30:37;26.40;99.90
8231;DHT22;4156;50.908;6.974;2023-08-20T09:33:10;26.40;99.90
8231;DHT22;4156;50.908;6.974;2023-08-20T09:35:36;26.40;99.90
8231;DHT22;4156;50.908;6.974;2023-08-20T09:38:05;26.40;99.90
8231;DHT22;4156;50.908;6.974;2023-08-20T09:40:31;26.40;99.90
8231;DHT22;4156;50.908;6.974;2023-08-20T09:42:57;26.50;99.90
8231;DHT22;4156;50.908;6.974;2023-08-20T09:45:28;26.50;99.90
8231;DHT22;4156;50.908;6.974;2023-08-20T09:47:58;26.50;99.90
8231;DHT22;4156;50.908;6.974;2023-08-20T09:50:26;26.50;99.90
8231;DHT22;4156;50.908;6.974;2023-08-20T09:53:01;26.60;99.90
8231;DHT22;4156;50.908;6.974;2023-08-20T09:55:33;26.60;99.90
8231;DHT22;4156;50.908;6.974;2023-08-20T09:58:02;26.60;99.90
8231;DHT22;4156;50.908;6.974;2023-08-20T10:00:28;26.60;99.90
8231;DHT22;4156;50.908;6.974;2023-08-20T10:02:54;26.60;99.90
8231;DHT22;4156;50.908;6.974;2023-08-20T10:05:23;26.70;99.90
8231;DHT22;4156;50.908;6.974;2023-08-20T10:07:49;26.70;99.90
8231;DHT22;4156;50.908;6.974;2023-08-20T10:10:15;26.70;99.90
8231;DHT22;4156;50.908;6.974;2023-08-20T10:12:43;26.70;99.90
8231;DHT22;4156;50.908;6.974;2023-08-20T10:15:11;26.70;99.90
8231;DHT22;4156;50.908;6.974;2023-08-20T10:17:38;26.70;99.90
8231;DHT22;4156;50.908;6.974;2023-08-20T10:20:05;26.80;99.90
8231;DHT22;4156;50.908;6.974;2023-08-20T10:22:44;26.80;99.90
8231;DHT22;4156;50.908;6.974;2023-08-20T10:25:12;26.80;99.90
8231;DHT22;4156;50.908;6.974;2023-08-20T10:27:47;26.80;99.90
8231;DHT22;4156;50.908;6.974;2023-08-20T10:30:39;26.80;99.90
8231;DHT22;4156;50.908;6.974;2023-08-20T10:33:24;26.80;99.90
8231;DHT22;4156;50.908;6.974;2023-08-20T10:35:50;26.90;99.90
8231;DHT22;4156;50.908;6.974;2023-08-20T10:38:18;26.90;99.90
8231;DHT22;4156;50.908;6.974;2023-08-20T10:40:57;26.90;99.90
8231;DHT22;4156;50.908;6.974;2023-08-20T10:46:20;26.90;99.90
8231;DHT22;4156;50.908;6.974;2023-08-20T10:48:48;26.90;99.90
8231;DHT22;4156;50.908;6.974;2023-08-20T10:51:28;26.90;99.90
8231;DHT22;4156;50.908;6.974;2023-08-20T10:54:07;26.90;99.90
8231;DHT22;4156;50.908;6.974;2023-08-20T10:56:48;26.90;99.90
8231;DHT22;4156;50.908;6.974;2023-08-20T10:59:27;26.90;99.90
8231;DHT22;4156;50.908;6.974;2023-08-20T11:01:55;26.90;99.90
8231;DHT22;4156;50.908;6.974;2023-08-20T11:04:23;26.90;99.90
8231;DHT22;4156;50.908;6.974;2023-08-20T11:06:58;26.90;99.90
8231;DHT22;4156;50.908;6.974;2023-08-20T11:09:26;26.90;99.90
8231;DHT22;4156;50.908;6.974;2023-08-20T11:11:52;26.90;99.90
8231;DHT22;4156;50.908;6.974;2023-08-20T11:14:19;26.90;99.90
8231;DHT22;4156;50.908;6.974;2023-08-20T11:16:45;27.00;99.90
8231;DHT22;4156;50.908;6.974;2023-08-20T11:19:11;27.00;99.90
8231;DHT22;4156;50.908;6.974;2023-08-20T11:21:41;27.00;99.90
8231;DHT22;4156;50.908;6.974;2023-08-20T11:24:07;27.00;99.90
8231;DHT22;4156;50.908;6.974;2023-08-20T11:26:34;27.00;99.90
8231;DHT22;4156;50.908;6.974;2023-08-20T11:29:01;27.00;99.90
8231;DHT22;4156;50.908;6.974;2023-08-20T11:31:30;27.10;99.90
8231;DHT22;4156;50.908;6.974;2023-08-20T11:33:57;27.10;99.90
8231;DHT22;4156;50.908;6.974;2023-08-20T11:36:23;27.10;99.90
8231;DHT22;4156;50.908;6.974;2023-08-20T11:38:52;27.10;99.90
8231;DHT22;4156;50.908;6.974;2023-08-20T11:41:19;27.20;99.90
8231;DHT22;4156;50.908;6.974;2023-08-20T11:43:48;27.20;99.90
8231;DHT22;4156;50.908;6.974;2023-08-20T11:46:15;27.30;99.90
8231;DHT22;4156;50.908;6.974;2023-08-20T11:49:07;27.20;99.90
8231;DHT22;4156;50.908;6.974;2023-08-20T11:51:46;27.20;99.90
8231;DHT22;4156;50.908;6.974;2023-08-20T11:54:13;27.20;99.90
8231;DHT22;4156;50.908;6.974;2023-08-20T11:56:46;27.30;99.90
8231;DHT22;4156;50.908;6.974;2023-08-20T11:59:13;27.30;99.90
8231;DHT22;4156;50.908;6.974;2023-08-20T12:01:39;27.30;99.90
8231;DHT22;4156;50.908;6.974;2023-08-20T12:04:08;27.30;99.90
8231;DHT22;4156;50.908;6.974;2023-08-20T12:06:35;27.30;99.90
8231;DHT22;4156;50.908;6.974;2023-08-20T12:09:02;27.30;99.90
8231;DHT22;4156;50.908;6.974;2023-08-20T12:11:30;27.30;99.90
8231;DHT22;4156;50.908;6.974;2023-08-20T12:13:56;27.30;99.90
8231;DHT22;4156;50.908;6.974;2023-08-20T12:16:23;27.30;99.90
8231;DHT22;4156;50.908;6.974;2023-08-20T12:18:50;27.40;99.90
8231;DHT22;4156;50.908;6.974;2023-08-20T12:21:16;27.40;99.90
8231;DHT22;4156;50.908;6.974;2023-08-20T12:23:41;27.40;99.90
8231;DHT22;4156;50.908;6.974;2023-08-20T12:26:07;27.40;99.90
8231;DHT22;4156;50.908;6.974;2023-08-20T12:28:35;27.50;99.90
8231;DHT22;4156;50.908;6.974;2023-08-20T12:31:01;27.40;99.90
8231;DHT22;4156;50.908;6.974;2023-08-20T12:33:28;27.40;99.90
8231;DHT22;4156;50.908;6.974;2023-08-20T12:35:54;27.50;99.90
8231;DHT22;4156;50.908;6.974;2023-08-20T12:38:20;27.50;99.90
8231;DHT22;4156;50.908;6.974;2023-08-20T12:40:46;27.50;99.90
8231;DHT22;4156;50.908;6.974;2023-08-20T12:43:11;27.50;99.90
8231;DHT22;4156;50.908;6.974;2023-08-20T12:45:37;27.50;99.90
8231;DHT22;4156;50.908;6.974;2023-08-20T12:48:04;27.50;99.90
8231;DHT22;4156;50.908;6.974;2023-08-20T12:50:30;27.50;99.90
8231;DHT22;4156;50.908;6.974;2023-08-20T12:52:56;27.50;99.90
8231;DHT22;4156;50.908;6.974;2023-08-20T12:55:22;27.60;99.90
8231;DHT22;4156;50.908;6.974;2023-08-20T12:57:58;27.60;99.90
8231;DHT22;4156;50.908;6.974;2023-08-20T13:00:24;27.60;99.90
8231;DHT22;4156;50.908;6.974;2023-08-20T13:02:51;27.60;99.90
8231;DHT22;4156;50.908;6.974;2023-08-20T13:05:17;27.60;99.90
8231;DHT22;4156;50.908;6.974;2023-08-20T13:07:43;27.60;99.90
8231;DHT22;4156;50.908;6.974;2023-08-20T13:10:09;27.60;99.90
8231;DHT22;4156;50.908;6.974;2023-08-20T13:12:35;27.60;99.90
8231;DHT22;4156;50.908;6.974;2023-08-20T13:15:01;27.60;99.90
8231;DHT22;4156;50.908;6.974;2023-08-20T13:17:29;27.60;99.90
8231;DHT22;4156;50.908;6.974;2023-08-20T13:19:55;27.60;99.90
8231;DHT22;4156;50.908;6.974;2023-08-20T13:22:21;27.60;99.90
8231;DHT22;4156;50.908;6.974;2023-08-20T13:24:47;27.60;99.90
8231;DHT22;4156;50.908;6.974;2023-08-20T13:27:12;27.60;99.90
8231;DHT22;4156;50.908;6.974;2023-08-20T13:29:38;27.60;99.90
8231;DHT22;4156;50.908;6.974;2023-08-20T13:32:03;27.60;99.90
8231;DHT22;4156;50.908;6.974;2023-08-20T13:34:29;27.60;99.90
8231;DHT22;4156;50.908;6.974;2023-08-20T13:36:55;27.60;99.90
8231;DHT22;4156;50.908;6.974;2023-08-20T13:39:20;27.60;99.90
8231;DHT22;4156;50.908;6.974;2023-08-20T13:41:49;27.70;99.90
8231;DHT22;4156;50.908;6.974;2023-08-20T13:44:14;27.70;99.90
8231;DHT22;4156;50.908;6.974;2023-08-20T13:46:40;27.70;99.90
8231;DHT22;4156;50.908;6.974;2023-08-20T13:49:05;27.70;99.90
8231;DHT22;4156;50.908;6.974;2023-08-20T13:51:31;27.70;99.90
8231;DHT22;4156;50.908;6.974;2023-08-20T13:53:57;27.70;99.90
8231;DHT22;4156;50.908;6.974;2023-08-20T13:56:23;27.80;99.90
8231;DHT22;4156;50.908;6.974;2023-08-20T13:58:49;27.70;99.90
8231;DHT22;4156;50.908;6.974;2023-08-20T14:01:15;27.80;99.90
8231;DHT22;4156;50.908;6.974;2023-08-20T14:03:40;27.80;99.90
8231;DHT22;4156;50.908;6.974;2023-08-20T14:06:06;27.80;99.90
8231;DHT22;4156;50.908;6.974;2023-08-20T14:08:32;27.80;99.90
8231;DHT22;4156;50.908;6.974;2023-08-20T14:10:58;27.80;99.90
8231;DHT22;4156;50.908;6.974;2023-08-20T14:13:23;27.80;99.90
8231;DHT22;4156;50.908;6.974;2023-08-20T14:15:49;27.80;99.90
8231;DHT22;4156;50.908;6.974;2023-08-20T14:18:15;27.80;99.90
8231;DHT22;4156;50.908;6.974;2023-08-20T14:20:41;27.90;99.90
8231;DHT22;4156;50.908;6.974;2023-08-20T14:23:06;27.90;99.90
8231;DHT22;4156;50.908;6.974;2023-08-20T14:25:32;27.90;99.90
8231;DHT22;4156;50.908;6.974;2023-08-20T14:27:57;27.90;99.90
8231;DHT22;4156;50.908;6.974;2023-08-20T14:30:23;27.90;99.90
8231;DHT22;4156;50.908;6.974;2023-08-20T14:32:49;27.90;99.90
8231;DHT22;4156;50.908;6.974;2023-08-20T14:35:14;27.90;99.90
8231;DHT22;4156;50.908;6.974;2023-08-20T14:37:40;27.90;99.90
8231;DHT22;4156;50.908;6.974;2023-08-20T14:40:06;27.90;99.90
8231;DHT22;4156;50.908;6.974;2023-08-20T14:42:32;27.90;99.90
8231;DHT22;4156;50.908;6.974;2023-08-20T14:44:58;27.90;99.90
8231;DHT22;4156;50.908;6.974;2023-08-20T14:47:23;28.00;99.90
8231;DHT22;4156;50.908;6.974;2023-08-20T14:49:49;28.00;99.90
8231;DHT22;4156;50.908;6.974;2023-08-20T14:52:14;27.90;99.90
8231;DHT22;4156;50.908;6.974;2023-08-20T14:54:41;28.00;99.90
8231;DHT22;4156;50.908;6.974;2023-08-20T14:57:07;28.00;99.90
8231;DHT22;4156;50.908;6.974;2023-08-20T14:59:33;27.90;99.90
8231;DHT22;4156;50.908;6.974;2023-08-20T15:01:59;28.00;99.90
8231;DHT22;4156;50.908;6.974;2023-08-20T15:04:25;28.00;99.90
8231;DHT22;4156;50.908;6.974;2023-08-20T15:06:50;28.00;99.90
8231;DHT22;4156;50.908;6.974;2023-08-20T15:09:16;28.00;99.90
8231;DHT22;4156;50.908;6.974;2023-08-20T15:11:42;28.00;99.90
8231;DHT22;4156;50.908;6.974;2023-08-20T15:14:08;28.00;99.90
8231;DHT22;4156;50.908;6.974;2023-08-20T15:16:33;28.00;99.90
8231;DHT22;4156;50.908;6.974;2023-08-20T15:18:59;28.00;99.90
8231;DHT22;4156;50.908;6.974;2023-08-20T15:21:26;28.00;99.90
8231;DHT22;4156;50.908;6.974;2023-08-20T15:23:51;28.00;99.90
8231;DHT22;4156;50.908;6.974;2023-08-20T15:26:17;28.00;99.90
8231;DHT22;4156;50.908;6.974;2023-08-20T15:28:42;28.00;99.90
8231;DHT22;4156;50.908;6.974;2023-08-20T15:31:08;28.00;99.90
8231;DHT22;4156;50.908;6.974;2023-08-20T15:33:34;28.10;99.90
8231;DHT22;4156;50.908;6.974;2023-08-20T15:35:59;28.10;99.90
8231;DHT22;4156;50.908;6.974;2023-08-20T15:38:25;28.00;99.90
8231;DHT22;4156;50.908;6.974;2023-08-20T15:40:52;27.90;99.90
8231;DHT22;4156;50.908;6.974;2023-08-20T15:43:18;28.10;99.90
8231;DHT22;4156;50.908;6.974;2023-08-20T15:45:43;28.10;99.90
8231;DHT22;4156;50.908;6.974;2023-08-20T15:48:09;28.10;99.90
8231;DHT22;4156;50.908;6.974;2023-08-20T15:50:34;28.00;99.90
8231;DHT22;4156;50.908;6.974;2023-08-20T15:53:00;28.10;99.90
8231;DHT22;4156;50.908;6.974;2023-08-20T15:55:26;28.10;99.90
8231;DHT22;4156;50.908;6.974;2023-08-20T15:57:51;28.00;99.90
8231;DHT22;4156;50.908;6.974;2023-08-20T16:00:17;28.10;99.90
8231;DHT22;4156;50.908;6.974;2023-08-20T16:02:44;28.10;99.90
8231;DHT22;4156;50.908;6.974;2023-08-20T16:05:11;28.10;99.90
8231;DHT22;4156;50.908;6.974;2023-08-20T16:07:36;28.10;99.90
8231;DHT22;4156;50.908;6.974;2023-08-20T16:10:03;28.10;99.90
8231;DHT22;4156;50.908;6.974;2023-08-20T16:12:30;28.10;99.90